createdAt,value
2018-08-12T00:00:27.225Z,15.76
2018-08-12T00:01:27.221Z,15.76
2018-08-12T00:02:27.212Z,15.70
2018-08-12T00:03:27.208Z,15.68
2018-08-12T00:04:27.203Z,15.66
2018-08-12T00:05:27.199Z,15.62
2018-08-12T00:06:27.201Z,15.58
2018-08-12T00:07:27.195Z,15.64
2018-08-12T00:08:27.186Z,15.64
2018-08-12T00:09:27.182Z,15.60
2018-08-12T00:10:27.183Z,15.62
2018-08-12T00:11:27.178Z,15.48
2018-08-12T00:12:27.175Z,15.46
2018-08-12T00:13:27.170Z,15.48
2018-08-12T00:14:27.160Z,15.40
2018-08-12T00:15:27.157Z,15.51
2018-08-12T00:16:27.152Z,15.38
2018-08-12T00:17:27.147Z,15.43
2018-08-12T00:18:27.148Z,15.37
2018-08-12T00:19:27.144Z,15.44
2018-08-12T00:20:27.139Z,15.35
2018-08-12T00:21:27.133Z,15.31
2018-08-12T00:22:27.126Z,15.31
2018-08-12T00:23:27.121Z,15.28
2018-08-12T00:24:27.120Z,15.31
2018-08-12T00:25:27.118Z,15.31
2018-08-12T00:26:27.107Z,15.28
2018-08-12T00:27:27.103Z,15.34
2018-08-12T00:28:27.099Z,15.34
2018-08-12T00:29:27.094Z,15.35
2018-08-12T00:30:27.093Z,15.44
2018-08-12T00:31:27.091Z,15.43
2018-08-12T00:32:27.083Z,15.41
2018-08-12T00:33:27.080Z,15.46
2018-08-12T00:34:27.071Z,15.51
2018-08-12T00:35:27.066Z,15.48
2018-08-12T00:36:27.062Z,15.44
2018-08-12T00:37:27.057Z,15.52
2018-08-12T00:38:27.058Z,15.44
2018-08-12T00:39:27.053Z,15.48
2018-08-12T00:40:27.043Z,15.49
2018-08-12T00:41:27.039Z,15.43
2018-08-12T00:42:27.040Z,15.48
2018-08-12T00:43:27.036Z,15.46
2018-08-12T00:44:27.030Z,15.49
2018-08-12T00:45:27.025Z,15.49
2018-08-12T00:46:27.016Z,15.51
2018-08-12T00:47:27.012Z,15.62
2018-08-12T00:48:27.007Z,15.58
2018-08-12T00:49:27.003Z,15.59
2018-08-12T00:50:27.004Z,15.71
2018-08-12T00:51:27.002Z,15.70
2018-08-12T00:52:26.994Z,15.68
2018-08-12T00:53:26.990Z,15.76
2018-08-12T00:54:26.981Z,15.76
2018-08-12T00:55:26.975Z,15.74
2018-08-12T00:56:26.978Z,15.78
2018-08-12T00:57:26.971Z,15.76
2018-08-12T00:58:26.961Z,15.84
2018-08-12T00:59:26.958Z,15.80
2018-08-12T01:00:26.952Z,15.80
2018-08-12T01:01:26.953Z,15.78
2018-08-12T01:02:26.947Z,15.77
2018-08-12T01:03:26.947Z,15.76
2018-08-12T01:04:26.937Z,15.78
2018-08-12T01:05:26.935Z,15.71
2018-08-12T01:06:26.925Z,15.76
2018-08-12T01:07:26.921Z,15.73
2018-08-12T01:08:26.915Z,15.74
2018-08-12T01:09:26.913Z,15.73
2018-08-12T01:10:26.912Z,15.70
2018-08-12T01:11:26.907Z,15.62
2018-08-12T01:12:26.897Z,15.66
2018-08-12T01:13:26.893Z,15.62
2018-08-12T01:14:26.893Z,15.55
2018-08-12T01:15:26.892Z,15.60
2018-08-12T01:16:26.883Z,15.55
2018-08-12T01:17:26.877Z,15.67
2018-08-12T01:18:26.870Z,15.59
2018-08-12T01:19:26.865Z,15.59
2018-08-12T01:20:26.859Z,15.59
2018-08-12T01:21:26.854Z,15.62
2018-08-12T01:22:26.854Z,15.55
2018-08-12T01:23:26.849Z,15.64
2018-08-12T01:24:26.845Z,15.64
2018-08-12T01:25:26.841Z,15.52
2018-08-12T01:26:26.832Z,15.58
2018-08-12T01:27:26.826Z,15.60
2018-08-12T01:28:26.829Z,15.59
2018-08-12T01:29:26.820Z,15.58
2018-08-12T01:30:26.812Z,15.55
2018-08-12T01:31:26.808Z,15.51
2018-08-12T01:32:26.802Z,15.55
2018-08-12T01:33:26.797Z,15.53
2018-08-12T01:34:26.796Z,15.49
2018-08-12T01:35:26.791Z,15.44
2018-08-12T01:36:26.787Z,15.44
2018-08-12T01:37:26.783Z,15.43
2018-08-12T01:38:26.776Z,15.31
2018-08-12T01:39:26.768Z,15.34
2018-08-12T01:40:26.763Z,15.30
2018-08-12T01:41:26.757Z,15.31
2018-08-12T01:42:26.759Z,15.15
2018-08-12T01:43:26.753Z,15.19
2018-08-12T01:44:26.742Z,15.22
2018-08-12T01:45:26.738Z,15.23
2018-08-12T01:46:26.738Z,15.15
2018-08-12T01:47:26.734Z,15.03
2018-08-12T01:48:26.730Z,15.00
2018-08-12T01:49:26.724Z,15.01
2018-08-12T01:50:26.715Z,14.97
2018-08-12T01:51:26.708Z,14.93
2018-08-12T01:52:26.705Z,14.91
2018-08-12T01:53:26.698Z,14.87
2018-08-12T01:54:26.697Z,14.87
2018-08-12T01:55:26.693Z,14.86
2018-08-12T01:56:26.688Z,14.78
2018-08-12T01:57:26.682Z,14.82
2018-08-12T01:58:26.674Z,14.72
2018-08-12T01:59:26.671Z,14.69
2018-08-12T02:00:26.667Z,14.61
2018-08-12T02:01:26.664Z,14.63
2018-08-12T02:02:26.653Z,14.64
2018-08-12T02:03:26.648Z,14.71
2018-08-12T02:04:26.646Z,14.60
2018-08-12T02:05:26.637Z,14.59
2018-08-12T02:06:26.638Z,14.64
2018-08-12T02:07:26.633Z,14.49
2018-08-12T02:08:26.626Z,14.61
2018-08-12T02:09:26.627Z,14.57
2018-08-12T02:10:26.613Z,14.64
2018-08-12T02:11:26.609Z,14.63
2018-08-12T02:12:26.602Z,14.71
2018-08-12T02:13:26.597Z,14.71
2018-08-12T02:14:26.598Z,14.79
2018-08-12T02:15:26.593Z,14.79
2018-08-12T02:16:26.582Z,14.79
2018-08-12T02:17:26.576Z,14.79
2018-08-12T02:18:26.577Z,14.82
2018-08-12T02:19:26.573Z,14.79
2018-08-12T02:20:26.565Z,14.85
2018-08-12T02:21:26.560Z,14.90
2018-08-12T02:22:26.551Z,14.91
2018-08-12T02:23:26.547Z,14.87
2018-08-12T02:24:26.541Z,14.87
2018-08-12T02:25:26.537Z,14.90
2018-08-12T02:26:26.537Z,15.00
2018-08-12T02:27:26.531Z,14.95
2018-08-12T02:28:26.527Z,14.95
2018-08-12T02:29:26.525Z,15.04
2018-08-12T02:30:26.512Z,15.01
2018-08-12T02:31:26.509Z,15.12
2018-08-12T02:32:26.509Z,15.16
2018-08-12T02:33:26.502Z,15.15
2018-08-12T02:34:26.492Z,15.15
2018-08-12T02:35:26.488Z,15.19
2018-08-12T02:36:26.481Z,15.19
2018-08-12T02:37:26.477Z,15.16
2018-08-12T02:38:26.476Z,15.18
2018-08-12T02:39:26.472Z,15.30
2018-08-12T02:40:26.466Z,15.33
2018-08-12T02:41:26.463Z,15.30
2018-08-12T02:42:26.452Z,15.37
2018-08-12T02:43:26.450Z,15.34
2018-08-12T02:44:26.442Z,15.38
2018-08-12T02:45:26.437Z,15.33
2018-08-12T02:46:26.436Z,15.37
2018-08-12T02:47:26.431Z,15.35
2018-08-12T02:48:26.426Z,15.31
2018-08-12T02:49:26.421Z,15.31
2018-08-12T02:50:26.418Z,15.38
2018-08-12T02:51:26.413Z,15.41
2018-08-12T02:52:26.408Z,15.34
2018-08-12T02:53:26.402Z,15.37
2018-08-12T02:54:26.392Z,15.34
2018-08-12T02:55:26.388Z,15.34
2018-08-12T02:56:26.384Z,15.34
2018-08-12T02:57:26.378Z,15.35
2018-08-12T02:58:26.379Z,15.40
2018-08-12T02:59:26.377Z,15.43
2018-08-12T03:00:26.369Z,15.44
2018-08-12T03:01:26.363Z,15.41
2018-08-12T03:02:26.354Z,15.46
2018-08-12T03:03:26.349Z,15.44
2018-08-12T03:04:26.348Z,15.44
2018-08-12T03:05:26.343Z,15.48
2018-08-12T03:06:26.335Z,15.48
2018-08-12T03:07:26.329Z,15.40
2018-08-12T03:08:26.324Z,15.43
2018-08-12T03:09:26.319Z,15.35
2018-08-12T03:10:26.320Z,15.37
2018-08-12T03:11:26.318Z,15.52
2018-08-12T03:12:26.309Z,15.51
2018-08-12T03:13:26.305Z,15.52
2018-08-12T03:14:26.295Z,15.55
2018-08-12T03:15:26.290Z,15.66
2018-08-12T03:16:26.285Z,15.62
2018-08-12T03:17:26.289Z,15.64
2018-08-12T03:18:26.280Z,15.59
2018-08-12T03:19:26.279Z,15.62
2018-08-12T03:20:26.266Z,15.66
2018-08-12T03:21:26.265Z,15.67
2018-08-12T03:22:26.343Z,15.64
2018-08-12T03:23:26.258Z,15.60
2018-08-12T03:24:26.252Z,15.77
2018-08-12T03:25:26.248Z,15.68
2018-08-12T03:26:26.237Z,15.74
2018-08-12T03:27:26.232Z,15.71
2018-08-12T03:28:26.227Z,15.74
2018-08-12T03:29:26.231Z,15.78
2018-08-12T03:30:26.270Z,15.78
2018-08-12T03:31:26.219Z,15.77
2018-08-12T03:32:26.213Z,15.74
2018-08-12T03:33:26.208Z,15.78
2018-08-12T03:34:26.198Z,15.70
2018-08-12T03:35:26.194Z,15.84
2018-08-12T03:36:26.192Z,15.77
2018-08-12T03:37:26.190Z,15.73
2018-08-12T03:38:26.180Z,15.77
2018-08-12T03:39:26.174Z,15.74
2018-08-12T03:40:26.168Z,15.73
2018-08-12T03:41:26.164Z,15.71
2018-08-12T03:42:26.165Z,15.78
2018-08-12T03:43:26.164Z,15.73
2018-08-12T03:44:26.155Z,15.73
2018-08-12T03:45:26.152Z,15.74
2018-08-12T03:46:26.140Z,15.76
2018-08-12T03:47:26.135Z,15.77
2018-08-12T03:48:26.130Z,15.73
2018-08-12T03:49:26.125Z,15.71
2018-08-12T03:50:26.126Z,15.76
2018-08-12T03:51:26.121Z,15.73
2018-08-12T03:52:26.110Z,15.71
2018-08-12T03:53:26.106Z,15.81
2018-08-12T03:54:26.106Z,15.77
2018-08-12T03:55:26.103Z,15.74
2018-08-12T03:56:26.096Z,15.78
2018-08-12T03:57:26.091Z,15.74
2018-08-12T03:58:26.082Z,15.77
2018-08-12T03:59:26.078Z,15.78
2018-08-12T04:00:26.072Z,15.86
2018-08-12T04:01:26.069Z,15.80
2018-08-12T04:02:26.141Z,15.85
2018-08-12T04:03:26.064Z,15.81
2018-08-12T04:04:26.059Z,15.78
2018-08-12T04:05:26.054Z,15.99
2018-08-12T04:06:26.045Z,15.96
2018-08-12T04:07:26.039Z,15.98
2018-08-12T04:08:26.039Z,15.92
2018-08-12T04:09:26.035Z,15.92
2018-08-12T04:10:26.025Z,15.95
2018-08-12T04:11:26.022Z,15.98
2018-08-12T04:12:26.014Z,15.95
2018-08-12T04:13:26.011Z,15.92
2018-08-12T04:14:26.009Z,16.08
2018-08-12T04:15:26.005Z,16.01
2018-08-12T04:16:25.999Z,16.06
2018-08-12T04:17:25.994Z,16.08
2018-08-12T04:18:25.985Z,16.06
2018-08-12T04:19:25.980Z,16.07
2018-08-12T04:20:25.976Z,16.08
2018-08-12T04:21:25.974Z,16.01
2018-08-12T04:22:25.971Z,16.04
2018-08-12T04:23:25.967Z,16.03
2018-08-12T04:24:25.956Z,16.11
2018-08-12T04:25:25.954Z,15.96
2018-08-12T04:26:25.952Z,16.04
2018-08-12T04:27:25.948Z,16.16
2018-08-12T04:28:25.941Z,16.08
2018-08-12T04:29:25.937Z,16.11
2018-08-12T04:30:25.927Z,16.08
2018-08-12T04:31:25.924Z,16.11
2018-08-12T04:32:25.917Z,16.16
2018-08-12T04:33:25.912Z,16.11
2018-08-12T04:34:25.912Z,16.16
2018-08-12T04:35:25.908Z,16.18
2018-08-12T04:36:25.902Z,16.22
2018-08-12T04:37:25.898Z,16.26
2018-08-12T04:38:25.889Z,16.29
2018-08-12T04:39:25.884Z,16.33
2018-08-12T04:40:25.884Z,16.29
2018-08-12T04:41:25.882Z,16.29
2018-08-12T04:42:25.872Z,16.37
2018-08-12T04:43:25.868Z,16.34
2018-08-12T04:44:25.860Z,16.42
2018-08-12T04:45:25.855Z,16.44
2018-08-12T04:46:25.856Z,16.52
2018-08-12T04:47:25.852Z,16.55
2018-08-12T04:48:25.847Z,16.65
2018-08-12T04:49:25.843Z,16.84
2018-08-12T04:50:25.833Z,16.92
2018-08-12T04:51:25.829Z,16.99
2018-08-12T04:52:25.825Z,17.22
2018-08-12T04:53:25.822Z,17.35
2018-08-12T04:54:25.824Z,17.51
2018-08-12T04:55:25.817Z,17.79
2018-08-12T04:56:25.809Z,18.13
2018-08-12T04:57:25.805Z,18.35
2018-08-12T04:58:25.806Z,18.65
2018-08-12T04:59:25.803Z,18.68
2018-08-12T05:00:25.799Z,18.62
2018-08-12T05:01:25.795Z,18.66
2018-08-12T05:02:25.788Z,18.83
2018-08-12T05:03:25.786Z,19.23
2018-08-12T05:04:25.783Z,19.58
2018-08-12T05:05:25.781Z,19.58
2018-08-12T05:06:25.782Z,19.57
2018-08-12T05:07:25.782Z,19.72
2018-08-12T05:08:25.777Z,19.68
2018-08-12T05:09:25.779Z,19.67
2018-08-12T05:10:25.770Z,19.65
2018-08-12T05:11:25.769Z,19.89
2018-08-12T05:12:25.770Z,19.94
2018-08-12T05:13:25.769Z,19.72
2018-08-12T05:14:25.768Z,19.90
2018-08-12T05:15:25.764Z,19.68
2018-08-12T05:16:25.761Z,19.58
2018-08-12T05:17:25.761Z,18.97
2018-08-12T05:18:25.766Z,19.06
2018-08-12T05:19:25.765Z,18.93
2018-08-12T05:20:25.765Z,19.31
2018-08-12T05:21:25.767Z,19.27
2018-08-12T05:22:25.758Z,19.71
2018-08-12T05:23:25.758Z,20.08
2018-08-12T05:24:25.756Z,20.08
2018-08-12T05:25:25.755Z,19.75
2018-08-12T05:26:25.759Z,20.00
2018-08-12T05:27:25.758Z,19.60
2018-08-12T05:28:25.755Z,20.04
2018-08-12T05:29:25.753Z,20.20
2018-08-12T05:30:25.757Z,20.33
2018-08-12T05:31:25.757Z,20.40
2018-08-12T05:32:25.757Z,20.30
2018-08-12T05:33:25.757Z,20.22
2018-08-12T05:34:25.753Z,20.46
2018-08-12T05:35:25.753Z,20.35
2018-08-12T05:36:25.751Z,20.25
2018-08-12T05:37:25.752Z,20.19
2018-08-12T05:38:25.759Z,20.37
2018-08-12T05:39:25.758Z,21.15
2018-08-12T05:40:25.757Z,20.88
2018-08-12T05:41:25.758Z,21.09
2018-08-12T05:42:25.753Z,21.05
2018-08-12T05:43:25.753Z,20.73
2018-08-12T05:44:25.758Z,20.76
2018-08-12T05:45:25.757Z,21.28
2018-08-12T05:46:25.754Z,21.31
2018-08-12T05:47:25.755Z,21.08
2018-08-12T05:48:25.756Z,21.05
2018-08-12T05:49:25.756Z,21.15
2018-08-12T05:50:25.762Z,21.49
2018-08-12T05:51:25.823Z,21.68
2018-08-12T05:52:25.759Z,22.19
2018-08-12T05:53:25.762Z,22.66
2018-08-12T05:54:25.769Z,22.79
2018-08-12T05:55:25.766Z,22.85
2018-08-12T05:56:25.767Z,23.14
2018-08-12T05:57:25.773Z,23.41
2018-08-12T05:58:25.767Z,23.23
2018-08-12T05:59:25.772Z,22.88
2018-08-12T06:00:25.776Z,23.00
2018-08-12T06:01:25.778Z,23.18
2018-08-12T06:02:25.775Z,23.32
2018-08-12T06:03:25.778Z,23.14
2018-08-12T06:04:25.780Z,23.31
2018-08-12T06:05:25.783Z,23.38
2018-08-12T06:06:25.790Z,24.33
2018-08-12T06:07:25.795Z,24.74
2018-08-12T06:08:25.799Z,24.51
2018-08-12T06:09:25.801Z,24.14
2018-08-12T06:10:25.800Z,23.96
2018-08-12T06:11:25.803Z,22.96
2018-08-12T06:12:25.807Z,22.84
2018-08-12T06:13:25.812Z,22.41
2018-08-12T06:14:25.822Z,22.91
2018-08-12T06:15:25.825Z,22.74
2018-08-12T06:16:25.824Z,22.91
2018-08-12T06:17:25.863Z,22.61
2018-08-12T06:18:25.839Z,21.93
2018-08-12T06:19:25.842Z,21.53
2018-08-12T06:20:25.845Z,21.31
2018-08-12T06:21:25.850Z,21.31
2018-08-12T06:22:25.848Z,21.11
2018-08-12T06:23:25.852Z,20.76
2018-08-12T06:24:25.855Z,20.66
2018-08-12T06:25:25.860Z,20.33
2018-08-12T06:26:25.867Z,20.10
2018-08-12T06:27:25.874Z,19.97
2018-08-12T06:28:25.874Z,19.76
2018-08-12T06:29:25.881Z,19.75
2018-08-12T06:30:25.875Z,19.58
2018-08-12T06:31:25.885Z,19.46
2018-08-12T06:32:25.913Z,19.23
2018-08-12T06:33:25.887Z,19.02
2018-08-12T06:34:25.998Z,19.06
2018-08-12T06:35:25.886Z,18.96
2018-08-12T06:36:25.887Z,18.99
2018-08-12T06:37:25.889Z,18.97
2018-08-12T06:38:25.895Z,19.01
2018-08-12T06:39:25.896Z,19.02
2018-08-12T06:40:25.896Z,19.24
2018-08-12T06:41:25.899Z,19.28
2018-08-12T06:42:25.894Z,19.27
2018-08-12T06:43:25.895Z,19.50
2018-08-12T06:44:25.897Z,19.57
2018-08-12T06:45:25.896Z,19.49
2018-08-12T06:46:25.963Z,19.57
2018-08-12T06:47:25.904Z,19.78
2018-08-12T06:48:25.897Z,20.15
2018-08-12T06:49:25.898Z,20.71
2018-08-12T06:50:25.903Z,21.24
2018-08-12T06:51:25.943Z,22.15
2018-08-12T06:52:25.904Z,22.86
2018-08-12T06:53:25.904Z,23.47
2018-08-12T06:54:25.901Z,23.29
2018-08-12T06:55:25.903Z,23.26
2018-08-12T06:56:25.905Z,22.96
2018-08-12T06:57:25.907Z,23.41
2018-08-12T06:58:25.912Z,23.21
2018-08-12T06:59:25.915Z,23.23
2018-08-12T07:00:25.940Z,23.49
2018-08-12T07:01:25.918Z,23.60
2018-08-12T07:02:25.917Z,23.14
2018-08-12T07:03:25.918Z,23.16
2018-08-12T07:04:25.925Z,23.09
2018-08-12T07:05:25.928Z,22.93
2018-08-12T07:06:25.928Z,22.94
2018-08-12T07:07:25.931Z,22.85
2018-08-12T07:08:25.933Z,23.32
2018-08-12T07:09:25.935Z,23.25
2018-08-12T07:10:25.944Z,24.12
2018-08-12T07:11:25.948Z,24.04
2018-08-12T07:12:25.950Z,24.66
2018-08-12T07:13:25.953Z,24.68
2018-08-12T07:14:25.984Z,25.16
2018-08-12T07:15:25.956Z,25.81
2018-08-12T07:16:25.959Z,26.72
2018-08-12T07:17:25.964Z,27.23
2018-08-12T07:18:25.973Z,27.08
2018-08-12T07:19:25.978Z,27.28
2018-08-12T07:20:25.978Z,27.55
2018-08-12T07:21:25.983Z,27.99
2018-08-12T07:22:25.993Z,28.76
2018-08-12T07:23:25.998Z,28.89
2018-08-12T07:24:26.006Z,28.33
2018-08-12T07:25:26.012Z,28.98
2018-08-12T07:26:26.013Z,27.80
2018-08-12T07:27:26.020Z,27.40
2018-08-12T07:28:26.026Z,27.40
2018-08-12T07:29:26.032Z,27.96
2018-08-12T07:30:26.044Z,26.97
2018-08-12T07:31:26.052Z,26.11
2018-08-12T07:32:26.058Z,26.93
2018-08-12T07:33:26.064Z,27.62
2018-08-12T07:34:26.069Z,27.46
2018-08-12T07:35:26.077Z,27.03
2018-08-12T07:36:26.087Z,26.79
2018-08-12T07:37:26.096Z,26.41
2018-08-12T07:38:26.099Z,26.57
2018-08-12T07:39:26.108Z,26.09
2018-08-12T07:40:26.117Z,26.09
2018-08-12T07:41:26.123Z,26.29
2018-08-12T07:42:26.135Z,26.03
2018-08-12T07:43:26.143Z,26.08
2018-08-12T07:44:26.149Z,26.17
2018-08-12T07:45:26.159Z,25.61
2018-08-12T07:46:26.159Z,25.46
2018-08-12T07:47:26.166Z,25.41
2018-08-12T07:48:26.172Z,24.93
2018-08-12T07:49:26.180Z,25.23
2018-08-12T07:50:26.191Z,25.34
2018-08-12T07:51:26.197Z,25.30
2018-08-12T07:52:26.199Z,25.45
2018-08-12T07:53:26.205Z,25.67
2018-08-12T07:54:26.215Z,25.81
2018-08-12T07:55:26.223Z,25.48
2018-08-12T07:56:26.229Z,25.46
2018-08-12T07:57:26.234Z,25.72
2018-08-12T07:58:26.234Z,26.31
2018-08-12T07:59:26.241Z,27.05
2018-08-12T08:00:26.246Z,27.53
2018-08-12T08:01:26.253Z,27.49
2018-08-12T08:02:26.261Z,27.40
2018-08-12T08:03:26.267Z,28.20
2018-08-12T08:04:26.274Z,28.91
2018-08-12T08:05:26.279Z,29.95
2018-08-12T08:06:26.352Z,30.29
2018-08-12T08:07:26.330Z,30.81
2018-08-12T08:08:26.297Z,30.73
2018-08-12T08:09:26.304Z,31.07
2018-08-12T08:10:26.307Z,31.45
2018-08-12T08:11:26.315Z,31.19
2018-08-12T08:12:26.387Z,30.45
2018-08-12T08:13:26.330Z,29.64
2018-08-12T08:14:26.342Z,28.80
2018-08-12T08:15:26.350Z,28.72
2018-08-12T08:16:26.357Z,28.91
2018-08-12T08:17:26.366Z,29.63
2018-08-12T08:18:26.370Z,30.64
2018-08-12T08:19:26.377Z,31.35
2018-08-12T08:20:26.385Z,31.46
2018-08-12T08:21:26.394Z,30.90
2018-08-12T08:22:26.407Z,30.37
2018-08-12T08:23:26.417Z,30.54
2018-08-12T08:24:26.420Z,30.32
2018-08-12T08:25:26.478Z,30.64
2018-08-12T08:26:26.442Z,30.49
2018-08-12T08:27:26.454Z,30.59
2018-08-12T08:28:26.461Z,30.53
2018-08-12T08:29:26.475Z,30.88
2018-08-12T08:30:26.477Z,31.07
2018-08-12T08:31:26.568Z,31.78
2018-08-12T08:32:26.497Z,32.19
2018-08-12T08:33:26.508Z,32.61
2018-08-12T08:34:26.522Z,32.56
2018-08-12T08:35:26.538Z,32.71
2018-08-12T08:36:26.546Z,32.49
2018-08-12T08:37:26.557Z,33.12
2018-08-12T08:38:26.563Z,32.19
2018-08-12T08:39:26.575Z,31.25
2018-08-12T08:40:26.592Z,30.59
2018-08-12T08:41:26.607Z,30.48
2018-08-12T08:42:26.612Z,30.60
2018-08-12T08:43:26.625Z,30.54
2018-08-12T08:44:26.636Z,31.25
2018-08-12T08:45:26.646Z,32.09
2018-08-12T08:46:26.662Z,32.24
2018-08-12T08:47:26.675Z,32.88
2018-08-12T08:48:26.687Z,33.33
2018-08-12T08:49:26.700Z,33.03
2018-08-12T08:50:26.708Z,33.14
2018-08-12T08:51:26.721Z,32.96
2018-08-12T08:52:26.733Z,32.69
2018-08-12T08:53:26.746Z,32.58
2018-08-12T08:54:26.763Z,32.43
2018-08-12T08:55:26.776Z,32.50
2018-08-12T08:56:26.785Z,32.84
2018-08-12T08:57:26.797Z,32.58
2018-08-12T08:58:26.818Z,32.56
2018-08-12T08:59:26.829Z,32.77
2018-08-12T09:00:26.843Z,32.49
2018-08-12T09:01:26.916Z,32.36
2018-08-12T09:02:26.863Z,32.10
2018-08-12T09:03:26.877Z,31.85
2018-08-12T09:04:26.890Z,32.21
2018-08-12T09:05:26.904Z,32.34
2018-08-12T09:06:26.922Z,32.44
2018-08-12T09:07:26.938Z,32.91
2018-08-12T09:08:27.190Z,33.29
2018-08-12T09:09:26.963Z,33.87
2018-08-12T09:10:26.974Z,34.08
2018-08-12T09:11:26.989Z,33.75
2018-08-12T09:12:27.005Z,33.11
2018-08-12T09:13:27.019Z,32.71
2018-08-12T09:14:27.032Z,32.49
2018-08-12T09:15:27.045Z,32.02
2018-08-12T09:16:27.056Z,31.53
2018-08-12T09:17:27.072Z,31.18
2018-08-12T09:18:27.093Z,31.54
2018-08-12T09:19:27.104Z,31.34
2018-08-12T09:20:27.117Z,31.28
2018-08-12T09:21:27.131Z,32.10
2018-08-12T09:22:27.138Z,32.22
2018-08-12T09:23:27.153Z,33.12
2018-08-12T09:24:27.166Z,33.74
2018-08-12T09:25:27.178Z,34.09
2018-08-12T09:26:27.198Z,34.24
2018-08-12T09:27:27.211Z,34.40
2018-08-12T09:28:27.219Z,34.24
2018-08-12T09:29:27.236Z,34.75
2018-08-12T09:30:27.252Z,34.95
2018-08-12T09:31:27.266Z,34.09
2018-08-12T09:32:27.281Z,34.24
2018-08-12T09:33:27.295Z,33.77
2018-08-12T09:34:27.306Z,33.29
2018-08-12T09:35:27.319Z,32.58
2018-08-12T09:36:27.335Z,32.88
2018-08-12T09:37:27.348Z,32.62
2018-08-12T09:38:27.369Z,33.12
2018-08-12T09:39:27.382Z,33.07
2018-08-12T09:40:27.396Z,33.07
2018-08-12T09:41:27.413Z,33.44
2018-08-12T09:42:27.422Z,32.99
2018-08-12T09:43:27.436Z,33.63
2018-08-12T09:44:27.455Z,33.68
2018-08-12T09:45:27.471Z,32.47
2018-08-12T09:46:27.481Z,32.56
2018-08-12T09:47:27.495Z,33.00
2018-08-12T09:48:27.514Z,32.50
2018-08-12T09:49:27.526Z,32.72
2018-08-12T09:50:27.545Z,33.40
2018-08-12T09:51:27.647Z,33.66
2018-08-12T09:52:27.574Z,33.86
2018-08-12T09:53:27.589Z,33.62
2018-08-12T09:54:27.599Z,33.34
2018-08-12T09:55:27.614Z,33.65
2018-08-12T09:56:27.628Z,32.98
2018-08-12T09:57:27.643Z,33.14
2018-08-12T09:58:27.669Z,31.90
2018-08-12T09:59:27.679Z,32.22
2018-08-12T10:00:27.786Z,31.82
2018-08-12T10:01:27.704Z,31.53
2018-08-12T10:02:27.723Z,31.45
2018-08-12T10:03:27.738Z,31.62
2018-08-12T10:04:27.753Z,31.67
2018-08-12T10:05:27.768Z,32.25
2018-08-12T10:06:27.779Z,32.93
2018-08-12T10:07:27.797Z,33.02
2018-08-12T10:08:27.805Z,33.52
2018-08-12T10:09:27.819Z,33.22
2018-08-12T10:10:27.839Z,33.66
2018-08-12T10:11:27.854Z,33.31
2018-08-12T10:12:27.866Z,33.20
2018-08-12T10:13:27.881Z,33.66
2018-08-12T10:14:27.890Z,34.12
2018-08-12T10:15:27.949Z,34.08
2018-08-12T10:16:27.924Z,34.15
2018-08-12T10:17:27.937Z,34.30
2018-08-12T10:18:27.948Z,35.25
2018-08-12T10:19:27.962Z,35.50
2018-08-12T10:20:27.980Z,35.27
2018-08-12T10:21:27.996Z,35.54
2018-08-12T10:22:28.011Z,35.76
2018-08-12T10:23:28.027Z,35.29
2018-08-12T10:24:28.040Z,35.83
2018-08-12T10:25:28.055Z,35.52
2018-08-12T10:26:28.065Z,35.64
2018-08-12T10:27:28.080Z,34.36
2018-08-12T10:28:28.094Z,34.98
2018-08-12T10:32:28.155Z,35.74
2018-08-12T10:33:28.171Z,34.99
2018-08-12T10:34:28.192Z,34.72
2018-08-12T10:35:28.211Z,34.48
2018-08-12T10:36:28.222Z,35.20
2018-08-12T10:37:28.241Z,35.96
2018-08-12T10:38:28.247Z,36.72
2018-08-12T10:39:28.264Z,35.92
2018-08-12T10:40:28.278Z,35.61
2018-08-12T10:41:28.293Z,35.18
2018-08-12T10:42:28.313Z,35.74
2018-08-12T10:43:28.329Z,36.25
2018-08-12T10:44:28.398Z,36.64
2018-08-12T10:45:28.361Z,37.23
2018-08-12T10:46:28.372Z,36.49
2018-08-12T10:47:28.388Z,35.22
2018-08-12T10:48:28.411Z,34.58
2018-08-12T10:49:28.422Z,34.15
2018-08-12T10:50:28.434Z,35.20
2018-08-12T10:51:28.451Z,35.40
2018-08-12T10:52:28.463Z,35.40
2018-08-12T10:53:28.480Z,34.58
2018-08-12T10:54:28.500Z,33.59
2018-08-12T10:55:28.516Z,33.74
2018-08-12T10:56:28.530Z,34.28
2018-08-12T10:57:28.547Z,35.15
2018-08-12T10:58:28.557Z,35.68
2018-08-12T10:59:28.693Z,35.83
2018-08-12T11:00:28.590Z,35.92
2018-08-12T11:01:28.603Z,36.05
2018-08-12T11:02:28.623Z,35.98
2018-08-12T11:03:28.643Z,36.27
2018-08-12T11:04:28.648Z,36.75
2018-08-12T11:05:28.664Z,35.58
2018-08-12T11:06:28.684Z,35.99
2018-08-12T11:07:28.715Z,36.50
2018-08-12T11:08:28.712Z,36.11
2018-08-12T11:09:28.728Z,36.11
2018-08-12T11:10:28.739Z,35.93
2018-08-12T11:11:28.754Z,35.24
2018-08-12T11:12:28.879Z,34.87
2018-08-12T11:13:28.784Z,34.73
2018-08-12T11:14:28.806Z,35.22
2018-08-12T11:15:28.820Z,35.15
2018-08-12T11:16:28.832Z,34.52
2018-08-12T11:17:28.847Z,34.90
2018-08-12T11:18:28.864Z,34.80
2018-08-12T11:19:28.874Z,34.86
2018-08-12T11:20:28.903Z,34.95
2018-08-12T11:21:28.907Z,35.13
2018-08-12T11:22:28.919Z,35.56
2018-08-12T11:23:28.937Z,34.28
2018-08-12T11:24:28.947Z,34.01
2018-08-12T11:25:28.962Z,34.33
2018-08-12T11:26:28.982Z,34.38
2018-08-12T11:27:28.995Z,34.18
2018-08-12T11:28:29.019Z,34.00
2018-08-12T11:29:29.023Z,34.09
2018-08-12T11:30:29.034Z,33.74
2018-08-12T11:31:29.047Z,33.65
2018-08-12T11:32:29.061Z,32.28
2018-08-12T11:33:29.074Z,32.32
2018-08-12T11:34:29.093Z,32.44
2018-08-12T11:35:29.104Z,32.50
2018-08-12T11:36:29.111Z,32.83
2018-08-12T11:37:29.123Z,32.98
2018-08-12T11:38:29.140Z,33.11
2018-08-12T11:39:29.150Z,33.11
2018-08-12T11:40:29.162Z,32.85
2018-08-12T11:41:29.174Z,32.90
2018-08-12T11:42:29.178Z,32.98
2018-08-12T11:43:29.190Z,33.11
2018-08-12T11:44:29.199Z,33.31
2018-08-12T11:45:29.209Z,32.99
2018-08-12T11:46:29.225Z,32.54
2018-08-12T11:47:29.266Z,32.46
2018-08-12T11:48:29.241Z,32.50
2018-08-12T11:49:29.250Z,32.53
2018-08-12T11:50:29.254Z,31.74
2018-08-12T11:51:29.262Z,31.64
2018-08-12T11:52:29.275Z,31.72
2018-08-12T11:53:29.283Z,31.60
2018-08-12T11:54:29.288Z,31.60
2018-08-12T11:55:29.296Z,31.50
2018-08-12T11:56:29.303Z,31.50
2018-08-12T11:57:29.311Z,31.01
2018-08-12T11:58:29.323Z,30.93
2018-08-12T11:59:29.330Z,30.75
2018-08-12T12:00:29.336Z,30.76
2018-08-12T12:01:29.345Z,30.51
2018-08-12T12:02:29.346Z,30.28
2018-08-12T12:03:29.353Z,30.23
2018-08-12T12:04:29.411Z,29.73
2018-08-12T12:05:29.366Z,29.76
2018-08-12T12:06:29.376Z,30.07
2018-08-12T12:07:29.383Z,30.30
2018-08-12T12:08:29.383Z,30.49
2018-08-12T12:09:29.390Z,30.63
2018-08-12T12:10:29.403Z,30.73
2018-08-12T12:11:29.408Z,30.96
2018-08-12T12:12:29.414Z,31.10
2018-08-12T12:13:29.422Z,31.07
2018-08-12T12:14:29.421Z,31.03
2018-08-12T12:15:29.428Z,30.79
2018-08-12T12:16:29.432Z,30.67
2018-08-12T12:17:29.437Z,30.66
2018-08-12T12:18:29.448Z,30.48
2018-08-12T12:19:29.454Z,30.54
2018-08-12T12:20:29.481Z,30.68
2018-08-12T12:21:29.467Z,30.82
2018-08-12T12:22:29.466Z,30.49
2018-08-12T12:23:29.473Z,29.95
2018-08-12T12:24:29.483Z,29.51
2018-08-12T12:25:29.491Z,29.30
2018-08-12T12:26:29.489Z,29.58
2018-08-12T12:27:29.495Z,29.79
2018-08-12T12:28:29.499Z,29.71
2018-08-12T12:29:29.510Z,29.67
2018-08-12T12:30:29.519Z,29.62
2018-08-12T12:31:29.520Z,29.57
2018-08-12T12:32:29.525Z,29.49
2018-08-12T12:33:29.530Z,29.47
2018-08-12T12:34:29.538Z,29.70
2018-08-12T12:35:29.554Z,29.81
2018-08-12T12:36:29.546Z,29.85
2018-08-12T12:37:29.551Z,30.00
2018-08-12T12:38:29.557Z,30.15
2018-08-12T12:39:29.563Z,30.07
2018-08-12T12:40:29.566Z,29.86
2018-08-12T12:41:29.567Z,29.57
2018-08-12T12:42:29.578Z,29.47
2018-08-12T12:43:29.584Z,29.62
2018-08-12T12:44:29.587Z,29.70
2018-08-12T12:45:29.592Z,29.79
2018-08-12T12:46:29.592Z,29.66
2018-08-12T12:47:29.599Z,29.58
2018-08-12T12:48:29.602Z,29.52
2018-08-12T12:49:29.634Z,29.44
2018-08-12T12:50:29.618Z,29.55
2018-08-12T12:51:29.620Z,29.69
2018-08-12T12:52:29.625Z,29.81
2018-08-12T12:53:29.630Z,29.94
2018-08-12T12:54:29.632Z,30.01
2018-08-12T12:55:29.635Z,29.70